Time;durP1;ratioP1;P1;durP2;ratioP2;P2;SDS_P1;SDS_P2;PMS_P1;PMS_P2;Temp;Humidity;BMP_temperature;BMP_pressure;BME280_temperature;BME280_humidity;BME280_pressure;Samples;Min_cycle;Max_cycle;Signal;HPM_P1;HPM_P2
2023/09/03 00:02:22;;;;;;;5.57;5.13;;;17.60;99.90;;;;;;5025725;28;20300;-59
2023/09/03 00:04:49;;;;;;;5.13;4.77;;;17.50;99.90;;;;;;5028586;28;20260;-59
2023/09/03 00:07:16;;;;;;;5.97;5.37;;;17.50;99.90;;;;;;5028088;28;20706;-58
2023/09/03 00:09:42;;;;;;;6.20;5.73;;;17.40;99.90;;;;;;5028815;28;20678;-58
2023/09/03 00:12:11;;;;;;;5.60;5.20;;;17.40;99.90;;;;;;5024321;28;20252;-58
2023/09/03 00:14:38;;;;;;;6.03;5.63;;;17.40;99.90;;;;;;5027606;28;20241;-58
2023/09/03 00:17:05;;;;;;;7.20;6.53;;;17.40;99.90;;;;;;5026370;28;20576;-58
2023/09/03 00:19:32;;;;;;;6.87;6.37;;;17.40;99.90;;;;;;5029004;28;20257;-58
2023/09/03 00:21:59;;;;;;;6.43;5.87;;;17.40;99.90;;;;;;5026883;28;20202;-58
2023/09/03 00:24:25;;;;;;;6.10;5.53;;;17.40;99.90;;;;;;5028143;28;20199;-58
2023/09/03 00:26:52;;;;;;;8.43;4.97;;;17.40;99.90;;;;;;5028595;28;20223;-58
2023/09/03 00:29:21;;;;;;;5.63;5.13;;;17.30;99.90;;;;;;5025277;28;20261;-58
2023/09/03 00:31:48;;;;;;;5.10;4.80;;;17.30;99.90;;;;;;5028627;28;20285;-58
2023/09/03 00:34:15;;;;;;;4.80;4.60;;;17.30;99.90;;;;;;5025806;28;20202;-59
2023/09/03 00:36:42;;;;;;;6.20;5.60;;;17.30;99.90;;;;;;5025482;28;20700;-58
2023/09/03 00:39:09;;;;;;;4.87;4.37;;;17.30;99.90;;;;;;5027617;28;20226;-58
2023/09/03 00:41:37;;;;;;;6.10;4.57;;;17.30;99.90;;;;;;5023436;28;20261;-59
2023/09/03 00:44:04;;;;;;;4.63;4.33;;;17.20;99.90;;;;;;5023793;28;20311;-59
2023/09/03 00:46:32;;;;;;;4.73;4.47;;;17.20;99.90;;;;;;5028165;28;20276;-59
2023/09/03 00:49:00;;;;;;;4.47;4.17;;;17.20;99.90;;;;;;5025937;28;20206;-58
2023/09/03 00:51:27;;;;;;;4.77;4.40;;;17.30;99.90;;;;;;5026215;28;20632;-58
2023/09/03 00:53:57;;;;;;;4.10;3.80;;;17.20;99.90;;;;;;5027376;28;20252;-58
2023/09/03 00:56:24;;;;;;;5.97;4.10;;;17.20;99.90;;;;;;5027897;28;20222;-59
2023/09/03 00:58:51;;;;;;;4.20;4.00;;;17.10;99.90;;;;;;5026810;28;20731;-58
2023/09/03 01:01:39;;;;;;;4.43;3.87;;;17.10;99.90;;;;;;5028214;28;20249;-64
2023/09/03 01:04:06;;;;;;;3.83;3.63;;;17.00;99.90;;;;;;5023529;28;20581;-63
2023/09/03 01:06:33;;;;;;;4.00;3.80;;;17.00;99.90;;;;;;5026070;28;20250;-59
2023/09/03 01:09:00;;;;;;;4.13;3.87;;;17.00;99.90;;;;;;5026544;28;20703;-58
2023/09/03 01:11:33;;;;;;;3.87;3.67;;;16.90;99.90;;;;;;5021929;28;20268;-58
2023/09/03 01:14:10;;;;;;;4.90;4.60;;;16.90;99.90;;;;;;5027313;28;20591;-59
2023/09/03 01:16:46;;;;;;;4.30;3.97;;;16.90;99.90;;;;;;5025471;28;20221;-59
2023/09/03 01:19:37;;;;;;;4.60;4.20;;;16.90;99.90;;;;;;5026029;28;20281;-59
2023/09/03 01:22:13;;;;;;;3.60;3.40;;;16.90;99.90;;;;;;5026297;28;20287;-59
2023/09/03 01:25:00;;;;;;;4.40;4.10;;;16.90;99.90;;;;;;5030529;28;20210;-59
2023/09/03 01:27:34;;;;;;;5.67;4.20;;;16.90;99.90;;;;;;5027412;28;20222;-59
2023/09/03 01:30:03;;;;;;;4.40;4.10;;;16.90;99.90;;;;;;5025384;28;20202;-59
2023/09/03 01:32:31;;;;;;;4.17;3.90;;;16.90;99.90;;;;;;5026593;28;20199;-59
2023/09/03 01:34:58;;;;;;;4.80;4.50;;;17.00;99.90;;;;;;5030229;28;20204;-57
2023/09/03 01:37:26;;;;;;;5.07;4.67;;;17.00;99.90;;;;;;5031135;28;20284;-59
2023/09/03 01:39:53;;;;;;;4.23;3.93;;;17.00;99.90;;;;;;5031939;28;20629;-58
2023/09/03 01:42:20;;;;;;;4.30;4.10;;;16.90;99.90;;;;;;5031609;28;20293;-59
2023/09/03 01:44:47;;;;;;;4.00;3.83;;;16.80;99.90;;;;;;5031605;28;20207;-58
2023/09/03 01:47:32;;;;;;;4.10;3.90;;;16.70;99.90;;;;;;5032095;28;20305;-58
2023/09/03 01:50:14;;;;;;;4.23;3.90;;;16.70;99.90;;;;;;5029472;28;20243;-58
2023/09/03 01:52:46;;;;;;;4.20;3.90;;;16.70;99.90;;;;;;5031513;28;20251;-58
2023/09/03 01:55:16;;;;;;;5.07;4.67;;;16.70;99.90;;;;;;5032142;28;20206;-58
2023/09/03 01:57:49;;;;;;;4.30;4.03;;;16.60;99.90;;;;;;5030710;28;20222;-58
2023/09/03 02:00:16;;;;;;;4.57;4.23;;;16.60;99.90;;;;;;5032049;28;20568;-59
2023/09/03 02:02:48;;;;;;;3.87;3.57;;;16.60;99.90;;;;;;5030180;28;20293;-59
2023/09/03 02:05:14;;;;;;;4.43;4.00;;;16.60;99.90;;;;;;5030984;28;20240;-58
2023/09/03 02:07:42;;;;;;;4.27;4.07;;;16.50;99.90;;;;;;5031253;28;20233;-59
2023/09/03 02:10:09;;;;;;;4.77;4.47;;;16.50;99.90;;;;;;5024562;28;20287;-59
2023/09/03 02:12:36;;;;;;;4.87;4.57;;;16.60;99.90;;;;;;5030893;28;20210;-58
2023/09/03 02:15:04;;;;;;;3.83;3.63;;;16.60;99.90;;;;;;5031635;28;20256;-58
2023/09/03 02:17:31;;;;;;;4.80;4.60;;;16.70;99.90;;;;;;5030069;28;20226;-59
2023/09/03 02:19:59;;;;;;;4.83;4.33;;;16.70;99.90;;;;;;5027386;28;20267;-62
2023/09/03 02:22:26;;;;;;;4.73;4.53;;;16.60;99.90;;;;;;5022871;28;20264;-60
2023/09/03 02:24:53;;;;;;;4.83;4.43;;;16.50;99.90;;;;;;5031782;28;20218;-60
2023/09/03 02:27:20;;;;;;;6.03;5.50;;;16.60;99.90;;;;;;5031938;28;20222;-61
2023/09/03 02:29:47;;;;;;;5.00;4.60;;;16.60;99.90;;;;;;5031724;28;20206;-62
2023/09/03 02:32:14;;;;;;;4.83;4.53;;;16.60;99.90;;;;;;5029441;28;20625;-60
2023/09/03 02:34:41;;;;;;;4.10;3.90;;;16.60;99.90;;;;;;5030704;28;20730;-61
2023/09/03 02:37:09;;;;;;;3.60;3.30;;;16.60;99.90;;;;;;5031513;28;20299;-60
2023/09/03 02:39:36;;;;;;;4.80;4.40;;;16.50;99.90;;;;;;5031518;28;20256;-60
2023/09/03 02:42:03;;;;;;;4.10;3.90;;;16.40;99.90;;;;;;5031344;28;20261;-62
2023/09/03 02:44:30;;;;;;;4.97;4.40;;;16.40;99.90;;;;;;5031572;28;20309;-62
2023/09/03 02:46:57;;;;;;;6.07;4.67;;;16.30;99.90;;;;;;5029563;28;20272;-62
2023/09/03 02:49:24;;;;;;;3.90;3.80;;;16.30;99.90;;;;;;5030239;28;20199;-61
2023/09/03 02:51:51;;;;;;;4.77;4.47;;;16.30;99.90;;;;;;5028721;28;20214;-60
2023/09/03 02:54:20;;;;;;;4.87;4.27;;;16.30;99.90;;;;;;5028115;28;20285;-60
2023/09/03 02:56:47;;;;;;;4.20;3.90;;;16.30;99.90;;;;;;5031268;28;20258;-59
2023/09/03 02:59:13;;;;;;;4.20;3.83;;;16.20;99.90;;;;;;5029733;28;20199;-61
2023/09/03 03:01:42;;;;;;;4.97;4.60;;;16.20;99.90;;;;;;5031405;28;20256;-61
2023/09/03 03:04:09;;;;;;;5.77;4.33;;;16.10;99.90;;;;;;5029692;28;20314;-60
2023/09/03 03:06:36;;;;;;;4.37;4.07;;;16.10;99.90;;;;;;5028122;28;20324;-59
2023/09/03 03:09:04;;;;;;;5.30;4.33;;;16.00;99.90;;;;;;5030069;28;20214;-61
2023/09/03 03:11:32;;;;;;;4.23;4.00;;;15.90;99.90;;;;;;5029361;28;20573;-60
2023/09/03 03:13:59;;;;;;;5.03;4.73;;;15.90;99.90;;;;;;5030547;28;20199;-61
2023/09/03 03:16:26;;;;;;;4.93;4.37;;;15.80;99.90;;;;;;5030881;28;20226;-59
2023/09/03 03:18:53;;;;;;;4.77;4.50;;;15.80;99.90;;;;;;5029959;28;20202;-60
2023/09/03 03:21:22;;;;;;;4.43;4.00;;;15.80;99.90;;;;;;5030584;28;20198;-60
2023/09/03 03:23:50;;;;;;;5.00;4.50;;;15.90;99.90;;;;;;5029503;28;20731;-60
2023/09/03 03:26:18;;;;;;;6.23;4.47;;;15.80;99.90;;;;;;5030869;28;20222;-60
2023/09/03 03:28:47;;;;;;;4.50;4.20;;;15.80;99.90;;;;;;5030651;28;20279;-59
2023/09/03 03:31:15;;;;;;;4.03;3.83;;;15.80;99.90;;;;;;5030822;28;20680;-59
2023/09/03 03:33:43;;;;;;;5.03;4.63;;;15.80;99.90;;;;;;5027887;28;20241;-60
2023/09/03 03:36:15;;;;;;;4.47;4.17;;;15.80;99.90;;;;;;5028912;28;20303;-61
2023/09/03 03:38:43;;;;;;;4.10;3.90;;;15.80;99.90;;;;;;5030586;28;20302;-63
2023/09/03 03:41:11;;;;;;;4.20;3.83;;;15.80;99.90;;;;;;5030390;28;20278;-62
2023/09/03 03:43:39;;;;;;;3.40;3.20;;;15.80;99.90;;;;;;5027383;28;20284;-61
2023/09/03 03:46:10;;;;;;;3.90;3.70;;;15.80;99.90;;;;;;5028818;28;20218;-64
2023/09/03 03:48:37;;;;;;;4.13;3.87;;;15.90;99.90;;;;;;5022951;28;20209;-62
2023/09/03 03:51:05;;;;;;;4.73;4.43;;;15.90;99.90;;;;;;5029423;28;20606;-62
2023/09/03 03:53:32;;;;;;;5.10;4.70;;;15.90;99.90;;;;;;5029644;28;20796;-64
2023/09/03 03:55:59;;;;;;;4.30;4.00;;;16.00;99.90;;;;;;5029365;28;20296;-65
2023/09/03 03:58:28;;;;;;;4.87;4.47;;;15.90;99.90;;;;;;5029388;28;20340;-64
2023/09/03 04:00:55;;;;;;;3.93;3.70;;;15.90;99.90;;;;;;5029495;28;20597;-63
2023/09/03 04:03:24;;;;;;;4.63;4.43;;;15.80;99.90;;;;;;5029554;28;20242;-65
2023/09/03 04:05:58;;;;;;;5.20;4.63;;;15.70;99.90;;;;;;5030156;28;20226;-64
2023/09/03 04:08:25;;;;;;;5.00;4.70;;;15.70;99.90;;;;;;5029644;28;20198;-63
2023/09/03 04:10:59;;;;;;;4.83;4.53;;;15.70;99.90;;;;;;5029912;28;20257;-65
2023/09/03 04:13:27;;;;;;;4.20;4.00;;;15.70;99.90;;;;;;5029342;28;20312;-60
2023/09/03 04:15:54;;;;;;;5.07;4.67;;;15.60;99.90;;;;;;5029198;28;20253;-61
2023/09/03 04:18:23;;;;;;;4.30;4.00;;;15.70;99.90;;;;;;5030035;28;20198;-61
2023/09/03 04:20:52;;;;;;;4.47;4.17;;;15.60;99.90;;;;;;5030061;28;20253;-61
2023/09/03 04:23:22;;;;;;;4.47;4.17;;;15.60;99.90;;;;;;5029321;28;20234;-60
2023/09/03 04:25:50;;;;;;;4.07;3.87;;;15.60;99.90;;;;;;5028212;28;20257;-55
2023/09/03 04:28:20;;;;;;;4.37;4.07;;;15.60;99.90;;;;;;5027359;28;20249;-55
2023/09/03 04:30:47;;;;;;;4.67;4.27;;;15.60;99.90;;;;;;5027142;28;20285;-55
2023/09/03 04:33:17;;;;;;;4.67;4.37;;;15.60;99.90;;;;;;5027498;28;20588;-55
2023/09/03 04:35:45;;;;;;;4.93;4.53;;;15.60;99.90;;;;;;5028393;28;20227;-55
2023/09/03 04:38:16;;;;;;;4.17;3.97;;;15.60;99.90;;;;;;5028700;28;20203;-55
2023/09/03 04:40:44;;;;;;;4.83;4.40;;;15.60;99.90;;;;;;5029140;28;20260;-55
2023/09/03 04:43:11;;;;;;;4.43;4.23;;;15.50;99.90;;;;;;5028373;28;20754;-56
2023/09/03 04:45:38;;;;;;;3.77;3.57;;;15.50;99.90;;;;;;5030351;28;20218;-55
2023/09/03 04:48:06;;;;;;;4.10;3.90;;;15.50;99.90;;;;;;5033375;28;20521;-55
2023/09/03 04:50:33;;;;;;;4.47;4.10;;;15.50;99.90;;;;;;5033780;28;20202;-55
2023/09/03 04:53:02;;;;;;;6.37;5.77;;;15.50;99.90;;;;;;5030794;28;20206;-55
2023/09/03 04:55:32;;;;;;;4.40;4.00;;;15.40;99.90;;;;;;5032976;28;20194;-55
2023/09/03 04:57:59;;;;;;;4.80;4.50;;;15.40;99.90;;;;;;5032687;28;20708;-55
2023/09/03 05:00:26;;;;;;;4.73;4.43;;;15.50;99.90;;;;;;5033850;28;20202;-55
2023/09/03 05:02:53;;;;;;;4.73;4.10;;;15.50;99.90;;;;;;5032777;28;20202;-55
2023/09/03 05:05:20;;;;;;;4.97;4.67;;;15.50;99.90;;;;;;5032240;28;20276;-55
2023/09/03 05:07:47;;;;;;;5.80;4.00;;;15.60;99.90;;;;;;5033116;28;20228;-55
2023/09/03 05:10:16;;;;;;;4.40;4.10;;;15.70;99.90;;;;;;5031146;28;20289;-55
2023/09/03 05:12:43;;;;;;;5.77;5.27;;;15.80;99.90;;;;;;5032360;28;20202;-55
2023/09/03 05:15:11;;;;;;;5.20;4.80;;;15.80;99.90;;;;;;5033210;28;20577;-55
2023/09/03 05:17:39;;;;;;;4.33;4.13;;;15.90;99.90;;;;;;5033055;28;20303;-55
2023/09/03 05:20:08;;;;;;;5.03;4.73;;;15.90;99.90;;;;;;5023693;28;20230;-55
2023/09/03 05:22:36;;;;;;;6.77;4.40;;;15.90;99.90;;;;;;5030605;28;20288;-55
2023/09/03 05:25:03;;;;;;;5.97;4.40;;;15.90;99.90;;;;;;5033190;28;20280;-55
2023/09/03 05:27:31;;;;;;;4.50;4.27;;;15.90;99.90;;;;;;5032559;28;20228;-55
2023/09/03 05:29:59;;;;;;;6.10;5.23;;;16.00;99.90;;;;;;5032850;28;20623;-55
2023/09/03 05:32:26;;;;;;;5.17;4.87;;;16.10;99.90;;;;;;5032180;28;20249;-56
2023/09/03 05:34:53;;;;;;;4.37;4.10;;;16.20;99.90;;;;;;5032078;28;20207;-55
2023/09/03 05:37:20;;;;;;;4.53;4.33;;;16.30;99.90;;;;;;5031887;28;20265;-55
2023/09/03 05:39:49;;;;;;;5.07;4.57;;;16.50;99.90;;;;;;5032643;28;20261;-57
2023/09/03 05:42:16;;;;;;;5.83;5.33;;;16.80;99.90;;;;;;5031865;28;20305;-55
2023/09/03 05:44:44;;;;;;;5.70;5.23;;;17.10;99.90;;;;;;5032707;28;20226;-55
2023/09/03 05:47:13;;;;;;;6.47;5.97;;;17.50;99.90;;;;;;5031409;28;20273;-55
2023/09/03 05:49:40;;;;;;;5.10;4.63;;;17.90;99.90;;;;;;5032464;28;20198;-56
2023/09/03 05:52:07;;;;;;;5.03;4.50;;;18.20;99.90;;;;;;5011887;28;20302;-55
2023/09/03 05:54:34;;;;;;;5.10;4.60;;;18.60;99.90;;;;;;5015433;28;20290;-55
2023/09/03 05:57:01;;;;;;;5.27;4.87;;;19.00;99.90;;;;;;5030282;28;20640;-56
2023/09/03 05:59:28;;;;;;;6.40;4.13;;;19.60;99.90;;;;;;5032146;28;20256;-55
2023/09/03 06:01:58;;;;;;;4.27;3.97;;;20.20;99.90;;;;;;5031709;28;20660;-55
2023/09/03 06:04:25;;;;;;;4.33;4.03;;;20.60;99.90;;;;;;5031360;28;20214;-55
2023/09/03 06:06:52;;;;;;;3.60;3.40;;;21.00;99.90;;;;;;5031788;28;20581;-55
2023/09/03 06:09:19;;;;;;;3.77;3.60;;;21.80;99.90;;;;;;5032061;28;20206;-55
2023/09/03 06:11:46;;;;;;;3.80;3.60;;;22.20;99.90;;;;;;5026312;28;20265;-56
2023/09/03 06:14:13;;;;;;;3.83;3.63;;;22.80;99.90;;;;;;5031544;28;20649;-55
2023/09/03 06:16:41;;;;;;;3.67;3.57;;;23.40;99.90;;;;;;5029918;28;20309;-55
2023/09/03 06:19:09;;;;;;;3.53;3.43;;;23.90;99.90;;;;;;5031955;28;20198;-56
2023/09/03 06:21:36;;;;;;;3.90;3.70;;;24.40;99.90;;;;;;5031602;28;20573;-55
2023/09/03 06:24:03;;;;;;;3.80;3.70;;;24.90;99.90;;;;;;5031237;28;20280;-56
2023/09/03 06:26:30;;;;;;;3.93;3.63;;;25.40;99.90;;;;;;5029751;28;20226;-56
2023/09/03 06:28:58;;;;;;;4.10;3.90;;;25.40;99.90;;;;;;5029680;28;20225;-56
2023/09/03 06:31:26;;;;;;;3.30;3.10;;;25.60;99.90;;;;;;5031782;28;20285;-55
2023/09/03 06:33:54;;;;;;;3.87;3.67;;;25.50;99.90;;;;;;5029929;28;20605;-56
2023/09/03 06:36:22;;;;;;;5.03;2.60;;;25.30;99.90;;;;;;5031773;28;20237;-55
2023/09/03 06:38:49;;;;;;;2.87;2.67;;;25.50;99.90;;;;;;5031502;28;20669;-56
2023/09/03 06:41:17;;;;;;;2.57;2.47;;;25.60;99.90;;;;;;5031243;28;20198;-56
2023/09/03 06:43:44;;;;;;;3.10;2.77;;;25.80;99.90;;;;;;5031165;28;20623;-56
2023/09/03 06:46:11;;;;;;;2.87;2.63;;;26.20;99.90;;;;;;5030231;28;20226;-56
2023/09/03 06:48:38;;;;;;;2.73;2.63;;;26.60;99.90;;;;;;5030302;28;20273;-56
2023/09/03 06:51:05;;;;;;;4.55;2.30;;;27.00;99.90;;;;;;5026524;28;20195;-56
2023/09/03 06:53:33;;;;;;;2.72;2.53;;;27.60;99.90;;;;;;5030202;28;20198;-55
2023/09/03 06:56:00;;;;;;;2.70;2.50;;;27.90;99.90;;;;;;5030832;28;20317;-56
2023/09/03 06:58:27;;;;;;;3.13;2.88;;;27.40;99.90;;;;;;5028122;28;20229;-56
2023/09/03 07:00:55;;;;;;;3.97;3.67;;;26.90;99.90;;;;;;5029463;28;20742;-55
2023/09/03 07:03:22;;;;;;;3.83;3.50;;;27.00;99.90;;;;;;5029584;28;20554;-55
2023/09/03 07:05:49;;;;;;;3.88;3.42;;;26.60;99.90;;;;;;5028959;28;20233;-55
2023/09/03 07:08:16;;;;;;;3.72;3.53;;;27.60;99.90;;;;;;5029584;28;20276;-55
2023/09/03 07:10:45;;;;;;;3.17;3.00;;;28.20;99.90;;;;;;5022208;28;20265;-56
2023/09/03 07:13:12;;;;;;;3.78;3.35;;;27.90;99.90;;;;;;5024903;28;20257;-56
2023/09/03 07:15:39;;;;;;;4.55;4.25;;;28.20;99.90;;;;;;5025400;28;20816;-55
2023/09/03 07:18:06;;;;;;;3.10;3.00;;;27.70;99.90;;;;;;5028719;28;20202;-56
2023/09/03 07:20:33;;;;;;;3.65;3.38;;;28.70;99.90;;;;;;5028682;28;20199;-56
2023/09/03 07:23:00;;;;;;;3.03;2.72;;;29.40;99.90;;;;;;5021332;28;20869;-56
2023/09/03 07:25:27;;;;;;;3.25;3.17;;;28.90;99.90;;;;;;5017705;28;20311;-56
2023/09/03 07:27:56;;;;;;;2.80;2.63;;;29.00;99.90;;;;;;5015989;28;20206;-56
2023/09/03 07:30:23;;;;;;;2.72;2.58;;;28.80;99.90;;;;;;5044829;23;20316;-56
2023/09/03 07:32:50;;;;;;;3.10;2.92;;;29.30;99.90;;;;;;5027663;28;20226;-56
2023/09/03 07:35:17;;;;;;;3.08;2.80;;;29.60;99.90;;;;;;5028937;28;20576;-56
2023/09/03 07:37:44;;;;;;;2.67;2.47;;;29.80;99.90;;;;;;5029461;28;20206;-56
2023/09/03 07:40:12;;;;;;;3.80;2.72;;;29.70;99.90;;;;;;5025640;28;20221;-56
2023/09/03 07:42:39;;;;;;;3.33;3.10;;;29.60;99.90;;;;;;5025611;28;20277;-56
2023/09/03 07:45:09;;;;;;;2.42;2.22;;;29.80;99.90;;;;;;5028003;28;20275;-56
2023/09/03 07:47:36;;;;;;;2.70;2.53;;;29.80;99.90;;;;;;5037654;28;20194;-56
2023/09/03 07:50:05;;;;;;;2.83;2.63;;;29.50;99.90;;;;;;5031910;28;20210;-56
2023/09/03 07:52:32;;;;;;;2.60;2.40;;;29.50;99.90;;;;;;5027622;28;20206;-56
2023/09/03 07:54:59;;;;;;;3.10;2.67;;;29.80;99.90;;;;;;5030437;28;20201;-56
2023/09/03 07:57:28;;;;;;;1.88;1.75;;;30.10;99.90;;;;;;5037718;28;20252;-56
2023/09/03 07:59:55;;;;;;;2.15;2.13;;;30.00;99.90;;;;;;5034962;28;20244;-56
2023/09/03 08:02:24;;;;;;;2.20;2.10;;;29.60;99.90;;;;;;5041362;28;20275;-56
2023/09/03 08:04:51;;;;;;;3.08;2.28;;;29.70;99.90;;;;;;5040061;28;20763;-56
2023/09/03 08:07:18;;;;;;;2.15;2.10;;;29.50;99.90;;;;;;5050983;28;20259;-56
2023/09/03 08:09:45;;;;;;;3.10;3.00;;;29.70;99.90;;;;;;5040640;28;20213;-56
2023/09/03 08:12:12;;;;;;;2.05;2.05;;;29.90;99.90;;;;;;5026166;28;20582;-56
2023/09/03 08:14:41;;;;;;;2.58;2.00;;;30.00;99.90;;;;;;5030904;28;20331;-56
2023/09/03 08:17:08;;;;;;;2.63;2.42;;;30.20;99.90;;;;;;5037706;28;20202;-56
2023/09/03 08:19:37;;;;;;;2.17;2.08;;;30.20;99.90;;;;;;5039162;28;20661;-56
2023/09/03 08:22:04;;;;;;;2.53;2.38;;;30.00;99.90;;;;;;5029780;28;20268;-56
2023/09/03 08:24:31;;;;;;;2.58;2.17;;;29.80;99.90;;;;;;5033975;28;20672;-56
2023/09/03 08:26:59;;;;;;;2.75;2.60;;;29.70;99.90;;;;;;5030574;28;20206;-56
2023/09/03 08:29:26;;;;;;;2.63;2.42;;;29.90;99.90;;;;;;5024811;28;20285;-56
2023/09/03 08:31:53;;;;;;;3.05;2.25;;;29.80;99.90;;;;;;5024581;28;20276;-56
2023/09/03 08:34:20;;;;;;;2.22;2.15;;;29.90;99.90;;;;;;5028027;28;20260;-56
2023/09/03 08:36:48;;;;;;;2.25;2.13;;;29.50;99.90;;;;;;5026569;28;20262;-56
2023/09/03 08:39:15;;;;;;;2.75;2.65;;;29.30;99.90;;;;;;5028948;28;20199;-56
2023/09/03 08:41:43;;;;;;;2.22;2.13;;;29.20;99.90;;;;;;5048022;28;20275;-57
2023/09/03 08:44:18;;;;;;;2.03;2.03;;;29.50;99.90;;;;;;5026225;28;20202;-56
2023/09/03 08:46:48;;;;;;;2.45;2.35;;;30.00;99.90;;;;;;5026822;28;20253;-56
2023/09/03 08:49:16;;;;;;;2.10;2.00;;;30.20;99.90;;;;;;5027892;28;20229;-56
2023/09/03 08:51:43;;;;;;;2.50;2.30;;;30.20;99.90;;;;;;5030252;28;20234;-56
2023/09/03 08:54:13;;;;;;;2.28;2.03;;;30.50;99.90;;;;;;5025835;28;20234;-56
2023/09/03 08:56:40;;;;;;;2.50;2.40;;;30.30;99.90;;;;;;5029360;28;20199;-56
2023/09/03 08:59:07;;;;;;;2.42;2.35;;;30.10;99.90;;;;;;5027010;28;20248;-56
2023/09/03 09:01:36;;;;;;;2.28;2.28;;;29.50;99.90;;;;;;5029428;28;20272;-56
2023/09/03 09:04:05;;;;;;;2.45;2.30;;;28.50;99.90;;;;;;5033312;28;20205;-56
2023/09/03 09:06:33;;;;;;;2.95;2.85;;;28.40;99.90;;;;;;5034131;28;20615;-56
2023/09/03 09:09:00;;;;;;;3.42;2.85;;;28.00;99.90;;;;;;5025516;28;20206;-56
2023/09/03 09:11:41;;;;;;;2.17;2.17;;;27.90;99.90;;;;;;5027772;28;20266;-56
2023/09/03 09:14:16;;;;;;;2.75;2.65;;;28.00;99.90;;;;;;5044285;28;20202;-56
2023/09/03 09:16:43;;;;;;;3.03;2.83;;;27.90;99.90;;;;;;5052649;28;20201;-56
2023/09/03 09:19:10;;;;;;;3.35;3.05;;;28.10;99.90;;;;;;5032427;28;20210;-56
2023/09/03 09:21:37;;;;;;;3.42;3.22;;;28.10;99.90;;;;;;5033407;28;20218;-56
2023/09/03 09:24:06;;;;;;;3.00;2.80;;;28.10;99.90;;;;;;5031307;28;20264;-56
2023/09/03 09:26:34;;;;;;;4.50;3.00;;;28.70;99.90;;;;;;5032105;28;20223;-56
2023/09/03 09:29:02;;;;;;;3.70;3.58;;;28.80;99.90;;;;;;5032658;28;20272;-56
2023/09/03 09:31:30;;;;;;;3.08;2.88;;;29.20;99.90;;;;;;5033051;28;20786;-56
2023/09/03 09:33:58;;;;;;;3.55;3.30;;;28.80;99.90;;;;;;5032065;28;20294;-56
2023/09/03 09:36:25;;;;;;;3.22;3.03;;;29.00;99.90;;;;;;5032779;28;20284;-56
2023/09/03 09:38:52;;;;;;;3.92;3.70;;;29.20;99.90;;;;;;5031564;28;20249;-56
2023/09/03 09:41:24;;;;;;;3.30;3.10;;;29.10;99.90;;;;;;5044968;28;20217;-56
2023/09/03 09:43:53;;;;;;;3.00;2.88;;;28.80;99.90;;;;;;5042615;28;20198;-56
2023/09/03 09:46:27;;;;;;;4.20;3.90;;;28.80;99.90;;;;;;5036338;28;20505;-64
2023/09/03 09:48:58;;;;;;;3.17;2.97;;;28.50;99.90;;;;;;5022085;28;20293;-59
2023/09/03 09:51:27;;;;;;;3.78;3.67;;;28.90;99.90;;;;;;5020574;28;21011;-59
2023/09/03 09:53:58;;;;;;;4.13;3.83;;;28.80;99.90;;;;;;5025127;28;20234;-59
2023/09/03 09:56:29;;;;;;;3.90;3.70;;;29.00;99.90;;;;;;5023156;28;20199;-59
2023/09/03 09:58:58;;;;;;;3.05;2.95;;;29.30;99.90;;;;;;5041183;28;20244;-60
2023/09/03 10:01:27;;;;;;;4.20;3.25;;;29.60;99.90;;;;;;5028854;28;20305;-59
2023/09/03 10:03:54;;;;;;;3.75;3.65;;;30.00;99.90;;;;;;5040282;28;20205;-59
2023/09/03 10:06:23;;;;;;;3.63;3.22;;;30.20;99.90;;;;;;5041957;28;20214;-59
2023/09/03 10:08:52;;;;;;;4.53;3.33;;;30.50;99.90;;;;;;5033984;28;20199;-60
2023/09/03 10:11:19;;;;;;;2.95;2.85;;;30.00;99.90;;;;;;5039115;28;20263;-60
2023/09/03 10:13:48;;;;;;;3.75;3.53;;;30.70;99.90;;;;;;5031410;28;20206;-59
2023/09/03 10:16:19;;;;;;;3.67;3.38;;;30.90;99.90;;;;;;5035233;28;20198;-60
2023/09/03 10:18:47;;;;;;;3.40;3.20;;;31.30;99.90;;;;;;5040299;28;20281;-59
2023/09/03 10:21:18;;;;;;;4.22;3.38;;;31.10;99.90;;;;;;5027471;28;20293;-61
2023/09/03 10:23:48;;;;;;;4.55;2.92;;;31.10;99.90;;;;;;5026127;28;20238;-61
2023/09/03 10:26:20;;;;;;;3.30;3.10;;;31.30;99.90;;;;;;5025560;28;20251;-63
2023/09/03 10:28:48;;;;;;;3.35;3.20;;;31.40;99.90;;;;;;5024553;28;20260;-64
2023/09/03 10:31:19;;;;;;;3.90;3.55;;;31.20;99.90;;;;;;5032451;28;20249;-64
2023/09/03 10:33:46;;;;;;;3.35;3.15;;;30.80;99.90;;;;;;5032163;28;20256;-57
2023/09/03 10:36:14;;;;;;;3.53;3.28;;;30.90;99.90;;;;;;5040813;28;20255;-57
2023/09/03 10:38:41;;;;;;;2.90;2.80;;;30.90;99.90;;;;;;5042981;28;20672;-57
2023/09/03 10:41:22;;;;;;;3.08;2.90;;;31.10;99.90;;;;;;5033366;28;20259;-56
2023/09/03 10:43:50;;;;;;;3.28;3.08;;;30.90;99.90;;;;;;5026943;28;20234;-56
2023/09/03 10:46:18;;;;;;;2.55;2.45;;;30.00;99.90;;;;;;5040420;28;20225;-60
2023/09/03 10:48:52;;;;;;;2.60;2.50;;;29.40;99.90;;;;;;5025938;28;20253;-61
2023/09/03 10:51:37;;;;;;;2.97;2.78;;;28.90;99.90;;;;;;5030942;28;20715;-61
2023/09/03 10:54:18;;;;;;;2.35;2.35;;;28.60;99.90;;;;;;5016279;28;20207;-61
2023/09/03 10:57:17;;;;;;;3.42;3.22;;;28.60;99.90;;;;;;5029401;28;20340;-62
2023/09/03 11:00:20;;;;;;;3.45;3.25;;;28.50;99.90;;;;;;5020402;28;20209;-62
2023/09/03 11:02:49;;;;;;;3.35;3.25;;;28.40;99.90;;;;;;5027259;28;20711;-59
2023/09/03 11:05:19;;;;;;;3.92;3.75;;;27.80;99.90;;;;;;5030471;28;20198;-60
2023/09/03 11:07:47;;;;;;;4.05;3.78;;;27.70;99.90;;;;;;5036328;28;20249;-60
2023/09/03 11:10:42;;;;;;;3.08;2.88;;;27.60;99.90;;;;;;5050388;28;20598;-59
2023/09/03 11:13:10;;;;;;;4.30;3.50;;;27.60;99.90;;;;;;5035221;28;20289;-60
2023/09/03 11:15:38;;;;;;;3.22;3.05;;;27.80;99.90;;;;;;5031933;28;20592;-59
2023/09/03 11:18:07;;;;;;;3.38;3.13;;;27.60;99.90;;;;;;5032057;28;20197;-61
2023/09/03 11:20:35;;;;;;;3.78;3.58;;;27.60;99.90;;;;;;5036152;28;20230;-59
2023/09/03 11:23:04;;;;;;;4.05;3.03;;;27.50;99.90;;;;;;5031007;28;20520;-58
2023/09/03 11:25:32;;;;;;;2.75;2.65;;;27.60;99.90;;;;;;5031315;28;20691;-60
2023/09/03 11:27:59;;;;;;;3.83;3.72;;;27.60;99.90;;;;;;5031362;28;20669;-61
2023/09/03 11:30:26;;;;;;;3.97;3.78;;;27.60;99.90;;;;;;5031039;28;20230;-59
2023/09/03 11:32:54;;;;;;;4.13;3.97;;;27.50;99.90;;;;;;5032080;28;20202;-60
2023/09/03 11:35:23;;;;;;;3.55;3.35;;;27.40;99.90;;;;;;5029048;28;20293;-59
2023/09/03 11:37:51;;;;;;;3.45;3.33;;;27.20;99.90;;;;;;5048867;28;20194;-55
2023/09/03 11:40:18;;;;;;;3.45;3.35;;;27.10;99.90;;;;;;5037210;28;20827;-62
2023/09/03 11:42:48;;;;;;;3.07;2.97;;;27.20;99.90;;;;;;5027801;28;20675;-58
2023/09/03 11:45:15;;;;;;;4.35;4.10;;;27.10;99.90;;;;;;5038337;28;20273;-55
2023/09/03 11:47:48;;;;;;;3.40;3.20;;;26.90;99.90;;;;;;5031267;28;20354;-62
2023/09/03 11:50:16;;;;;;;3.00;2.90;;;26.80;99.90;;;;;;5028758;28;20222;-55
2023/09/03 11:52:49;;;;;;;2.60;2.40;;;26.80;99.90;;;;;;5037643;28;20367;-63
2023/09/03 11:55:16;;;;;;;2.43;2.33;;;26.70;99.90;;;;;;5033659;28;20282;-63
2023/09/03 11:57:46;;;;;;;3.17;2.90;;;26.60;99.90;;;;;;5035193;28;20688;-61
2023/09/03 12:00:15;;;;;;;3.23;3.03;;;26.80;99.90;;;;;;5032054;28;20727;-61
2023/09/03 12:02:44;;;;;;;3.20;3.10;;;26.80;99.90;;;;;;5023660;28;20681;-60
2023/09/03 12:05:12;;;;;;;2.78;2.67;;;27.00;99.90;;;;;;5027006;28;20198;-61
2023/09/03 12:07:39;;;;;;;3.03;2.67;;;27.10;99.90;;;;;;5034327;28;20299;-62
2023/09/03 12:10:09;;;;;;;2.90;2.67;;;27.20;99.90;;;;;;5041251;28;21010;-62
2023/09/03 12:12:36;;;;;;;2.70;2.50;;;27.00;99.90;;;;;;5030895;28;20202;-62
2023/09/03 12:15:18;;;;;;;2.53;2.42;;;26.70;99.90;;;;;;5030167;28;20264;-61
2023/09/03 12:17:45;;;;;;;2.93;2.63;;;26.90;99.90;;;;;;5033645;28;20209;-61
2023/09/03 12:20:33;;;;;;;2.65;2.45;;;27.00;99.90;;;;;;5040717;28;20222;-61
2023/09/03 12:23:15;;;;;;;3.22;3.13;;;27.20;99.90;;;;;;5041092;28;20252;-61
2023/09/03 12:25:44;;;;;;;2.92;2.83;;;27.30;99.90;;;;;;5030648;28;20210;-62
2023/09/03 12:28:12;;;;;;;4.10;3.00;;;27.40;99.90;;;;;;5022174;28;20203;-61
2023/09/03 12:30:56;;;;;;;2.92;2.80;;;27.50;99.90;;;;;;5033085;28;20226;-61
2023/09/03 12:33:24;;;;;;;2.85;2.75;;;27.60;99.90;;;;;;5032189;28;20221;-61
2023/09/03 12:36:04;;;;;;;2.60;2.47;;;27.60;99.90;;;;;;5048088;28;20255;-62
2023/09/03 12:38:31;;;;;;;3.47;3.17;;;27.80;99.90;;;;;;5041235;28;20190;-59
2023/09/03 12:40:59;;;;;;;2.63;2.42;;;27.90;99.90;;;;;;5038896;28;20292;-61
2023/09/03 12:43:26;;;;;;;2.88;2.78;;;27.80;99.90;;;;;;5029951;28;20280;-60
2023/09/03 12:45:53;;;;;;;2.70;2.60;;;27.80;99.90;;;;;;5030466;28;20748;-61
2023/09/03 12:48:20;;;;;;;3.17;2.90;;;27.80;99.90;;;;;;5032942;28;20228;-62
2023/09/03 12:50:47;;;;;;;3.17;2.97;;;27.80;99.90;;;;;;5037915;28;20263;-61
2023/09/03 12:53:14;;;;;;;3.17;3.08;;;27.90;99.90;;;;;;5028672;28;20194;-61
2023/09/03 12:55:41;;;;;;;2.83;2.45;;;27.90;99.90;;;;;;5028387;28;20230;-61
2023/09/03 12:58:09;;;;;;;3.13;3.03;;;27.70;99.90;;;;;;5030302;28;20194;-59